sensor_id;sensor_type;location;lat;lon;timestamp;pressure;altitude;pressure_sealevel;temperature;humidity
30714;BME280;17465;47.934;33.430;2022-08-03T00:02:03;99493.58;;;20.30;100.00
30714;BME280;17465;47.934;33.430;2022-08-03T00:04:35;99493.58;;;20.30;100.00
30714;BME280;17465;47.934;33.430;2022-08-03T00:07:05;99491.37;;;20.29;100.00
30714;BME280;17465;47.934;33.430;2022-08-03T00:09:36;99489.17;;;20.32;100.00
30714;BME280;17465;47.934;33.430;2022-08-03T00:12:06;99490.55;;;20.29;100.00
30714;BME280;17465;47.934;33.430;2022-08-03T00:14:36;99486.34;;;20.22;100.00
30714;BME280;17465;47.934;33.430;2022-08-03T00:17:07;99480.09;;;20.33;100.00
30714;BME280;17465;47.934;33.430;2022-08-03T00:19:37;99482.31;;;20.23;100.00
30714;BME280;17465;47.934;33.430;2022-08-03T00:22:07;99472.66;;;20.38;100.00
30714;BME280;17465;47.934;33.430;2022-08-03T00:24:38;99467.02;;;20.38;100.00
30714;BME280;17465;47.934;33.430;2022-08-03T00:27:09;99467.02;;;20.38;100.00
30714;BME280;17465;47.934;33.430;2022-08-03T00:29:40;99466.42;;;20.42;100.00
30714;BME280;17465;47.934;33.430;2022-08-03T00:32:12;99469.63;;;20.40;100.00
30714;BME280;17465;47.934;33.430;2022-08-03T00:34:44;99469.63;;;20.40;100.00
30714;BME280;17465;47.934;33.430;2022-08-03T00:37:16;99472.64;;;20.31;100.00
30714;BME280;17465;47.934;33.430;2022-08-03T00:39:47;99478.08;;;20.26;100.00
30714;BME280;17465;47.934;33.430;2022-08-03T00:42:17;99481.70;;;20.23;100.00
30714;BME280;17465;47.934;33.430;2022-08-03T00:44:48;99486.33;;;20.39;100.00
30714;BME280;17465;47.934;33.430;2022-08-03T00:47:18;99482.31;;;20.40;100.00
30714;BME280;17465;47.934;33.430;2022-08-03T00:49:48;99473.65;;;20.39;100.00
30714;BME280;17465;47.934;33.430;2022-08-03T00:52:19;99473.65;;;20.39;100.00
30714;BME280;17465;47.934;33.430;2022-08-03T00:54:49;99480.11;;;20.40;100.00
30714;BME280;17465;47.934;33.430;2022-08-03T00:57:20;99483.91;;;20.31;100.00
30714;BME280;17465;47.934;33.430;2022-08-03T00:59:50;99482.29;;;20.20;100.00
30714;BME280;17465;47.934;33.430;2022-08-03T01:02:20;99489.74;;;20.22;100.00
30714;BME280;17465;47.934;33.430;2022-08-03T01:04:51;99483.13;;;20.27;100.00
30714;BME280;17465;47.934;33.430;2022-08-03T01:10:47;99481.91;;;20.21;100.00
30714;BME280;17465;47.934;33.430;2022-08-03T01:13:26;99481.91;;;20.21;100.00
30714;BME280;17465;47.934;33.430;2022-08-03T01:16:03;99484.11;;;20.18;100.00
30714;BME280;17465;47.934;33.430;2022-08-03T01:18:43;99484.11;;;20.18;100.00
30714;BME280;17465;47.934;33.430;2022-08-03T01:21:15;99482.87;;;19.98;100.00
30714;BME280;17465;47.934;33.430;2022-08-03T01:29:12;99476.04;;;20.17;100.00
30714;BME280;17465;47.934;33.430;2022-08-03T01:31:52;99475.86;;;20.23;100.00
30714;BME280;17465;47.934;33.430;2022-08-03T01:34:19;99468.61;;;20.18;100.00
30714;BME280;17465;47.934;33.430;2022-08-03T01:36:51;99476.05;;;20.13;100.00
30714;BME280;17465;47.934;33.430;2022-08-03T01:39:24;99470.61;;;20.18;100.00
30714;BME280;17465;47.934;33.430;2022-08-03T01:42:00;99470.61;;;20.18;100.00
30714;BME280;17465;47.934;33.430;2022-08-03T01:44:35;99464.59;;;20.19;100.00
30714;BME280;17465;47.934;33.430;2022-08-03T01:47:06;99464.59;;;20.19;100.00
30714;BME280;17465;47.934;33.430;2022-08-03T01:52:32;99463.57;;;20.14;100.00
30714;BME280;17465;47.934;33.430;2022-08-03T01:55:04;99459.17;;;20.27;100.00
30714;BME280;17465;47.934;33.430;2022-08-03T02:00:28;99461.57;;;20.42;100.00
30714;BME280;17465;47.934;33.430;2022-08-03T02:03:00;99460.95;;;20.29;100.00
30714;BME280;17465;47.934;33.430;2022-08-03T02:05:32;99464.80;;;20.30;100.00
30714;BME280;17465;47.934;33.430;2022-08-03T02:08:04;99468.63;;;20.25;100.00
30714;BME280;17465;47.934;33.430;2022-08-03T02:10:37;99468.63;;;20.25;100.00
30714;BME280;17465;47.934;33.430;2022-08-03T02:13:10;99470.02;;;20.32;100.00
30714;BME280;17465;47.934;33.430;2022-08-03T02:15:42;99472.05;;;20.21;100.00
30714;BME280;17465;47.934;33.430;2022-08-03T02:18:14;99472.06;;;20.38;100.00
30714;BME280;17465;47.934;33.430;2022-08-03T02:20:46;99470.05;;;20.25;100.00
30714;BME280;17465;47.934;33.430;2022-08-03T02:23:16;99470.05;;;20.25;100.00
30714;BME280;17465;47.934;33.430;2022-08-03T02:25:52;99466.39;;;20.28;100.00
30714;BME280;17465;47.934;33.430;2022-08-03T02:28:47;99466.22;;;20.27;100.00
30714;BME280;17465;47.934;33.430;2022-08-03T02:31:22;99471.05;;;20.23;100.00
30714;BME280;17465;47.934;33.430;2022-08-03T02:33:55;99468.81;;;20.19;100.00
30714;BME280;17465;47.934;33.430;2022-08-03T02:36:28;99464.98;;;20.14;100.00
30714;BME280;17465;47.934;33.430;2022-08-03T02:39:01;99466.59;;;20.15;100.00
30714;BME280;17465;47.934;33.430;2022-08-03T02:41:37;99466.59;;;20.15;100.00
30714;BME280;17465;47.934;33.430;2022-08-03T02:44:10;99466.41;;;20.24;100.00
30714;BME280;17465;47.934;33.430;2022-08-03T02:46:43;99467.42;;;20.29;100.00
30714;BME280;17465;47.934;33.430;2022-08-03T02:49:16;99467.42;;;20.29;100.00
30714;BME280;17465;47.934;33.430;2022-08-03T02:51:51;99463.00;;;20.25;100.00
30714;BME280;17465;47.934;33.430;2022-08-03T02:54:23;99467.41;;;20.33;100.00
30714;BME280;17465;47.934;33.430;2022-08-03T02:56:56;99468.00;;;20.29;100.00
30714;BME280;17465;47.934;33.430;2022-08-03T02:59:28;99468.00;;;20.29;100.00
30714;BME280;17465;47.934;33.430;2022-08-03T03:02:00;99465.19;;;20.29;100.00
30714;BME280;17465;47.934;33.430;2022-08-03T03:04:32;99470.04;;;20.39;100.00
30714;BME280;17465;47.934;33.430;2022-08-03T03:07:02;99470.04;;;20.39;100.00
30714;BME280;17465;47.934;33.430;2022-08-03T03:09:33;99469.02;;;20.34;100.00
30714;BME280;17465;47.934;33.430;2022-08-03T03:12:07;99472.66;;;20.24;100.00
30714;BME280;17465;47.934;33.430;2022-08-03T03:14:39;99470.23;;;20.19;100.00
30714;BME280;17465;47.934;33.430;2022-08-03T03:17:10;99470.23;;;20.19;100.00
30714;BME280;17465;47.934;33.430;2022-08-03T03:19:42;99469.41;;;20.29;100.00
30714;BME280;17465;47.934;33.430;2022-08-03T03:22:13;99468.03;;;20.43;100.00
30714;BME280;17465;47.934;33.430;2022-08-03T03:24:45;99468.62;;;20.53;100.00
30714;BME280;17465;47.934;33.430;2022-08-03T03:27:17;99474.69;;;20.37;100.00
30714;BME280;17465;47.934;33.430;2022-08-03T03:29:48;99484.54;;;20.41;100.00
30714;BME280;17465;47.934;33.430;2022-08-03T03:32:18;99477.69;;;20.42;100.00
30714;BME280;17465;47.934;33.430;2022-08-03T03:34:49;99478.30;;;20.45;100.00
30714;BME280;17465;47.934;33.430;2022-08-03T03:37:20;99478.30;;;20.45;100.00
30714;BME280;17465;47.934;33.430;2022-08-03T03:39:52;99478.08;;;20.51;100.00
30714;BME280;17465;47.934;33.430;2022-08-03T03:42:23;99478.08;;;20.51;100.00
30714;BME280;17465;47.934;33.430;2022-08-03T03:44:54;99468.22;;;20.47;100.00
30714;BME280;17465;47.934;33.430;2022-08-03T03:47:24;99479.30;;;20.36;100.00
30714;BME280;17465;47.934;33.430;2022-08-03T03:49:57;99479.28;;;20.39;100.00
30714;BME280;17465;47.934;33.430;2022-08-03T03:52:28;99483.52;;;20.50;100.00
30714;BME280;17465;47.934;33.430;2022-08-03T03:54:58;99484.75;;;20.38;100.00
30714;BME280;17465;47.934;33.430;2022-08-03T03:57:31;99484.75;;;20.38;100.00
30714;BME280;17465;47.934;33.430;2022-08-03T04:00:01;99492.59;;;20.53;100.00
30714;BME280;17465;47.934;33.430;2022-08-03T04:02:32;99492.59;;;20.53;100.00
30714;BME280;17465;47.934;33.430;2022-08-03T04:05:02;99496.84;;;20.56;100.00
30714;BME280;17465;47.934;33.430;2022-08-03T04:07:55;99498.44;;;20.61;100.00
30714;BME280;17465;47.934;33.430;2022-08-03T04:10:26;99498.44;;;20.61;100.00
30714;BME280;17465;47.934;33.430;2022-08-03T04:12:59;99498.42;;;20.64;100.00
30714;BME280;17465;47.934;33.430;2022-08-03T04:15:32;99499.66;;;20.67;100.00
30714;BME280;17465;47.934;33.430;2022-08-03T04:18:05;99497.45;;;20.84;100.00
30714;BME280;17465;47.934;33.430;2022-08-03T04:20:38;99495.60;;;20.75;100.00
30714;BME280;17465;47.934;33.430;2022-08-03T04:23:12;99506.91;;;20.68;100.00
30714;BME280;17465;47.934;33.430;2022-08-03T04:25:46;99506.91;;;20.68;100.00
30714;BME280;17465;47.934;33.430;2022-08-03T04:28:19;99497.03;;;20.78;100.00
30714;BME280;17465;47.934;33.430;2022-08-03T04:30:53;99503.45;;;20.72;100.00
30714;BME280;17465;47.934;33.430;2022-08-03T04:33:26;99506.91;;;20.78;100.00
30714;BME280;17465;47.934;33.430;2022-08-03T04:36:00;99509.34;;;20.80;100.00
30714;BME280;17465;47.934;33.430;2022-08-03T04:38:43;99509.34;;;20.80;100.00
30714;BME280;17465;47.934;33.430;2022-08-03T04:41:09;99508.10;;;20.95;100.00
30714;BME280;17465;47.934;33.430;2022-08-03T04:43:41;99504.29;;;20.86;100.00
30714;BME280;17465;47.934;33.430;2022-08-03T04:46:12;99508.94;;;20.85;100.00
30714;BME280;17465;47.934;33.430;2022-08-03T04:48:43;99506.11;;;20.60;100.00
30714;BME280;17465;47.934;33.430;2022-08-03T04:54:05;99512.17;;;20.94;100.00
30714;BME280;17465;47.934;33.430;2022-08-03T04:56:40;99512.17;;;20.94;100.00
30714;BME280;17465;47.934;33.430;2022-08-03T04:59:11;99515.77;;;20.98;100.00
30714;BME280;17465;47.934;33.430;2022-08-03T05:01:42;99519.41;;;20.88;100.00
30714;BME280;17465;47.934;33.430;2022-08-03T05:04:12;99519.41;;;20.88;100.00
30714;BME280;17465;47.934;33.430;2022-08-03T05:06:43;99515.77;;;20.98;100.00
30714;BME280;17465;47.934;33.430;2022-08-03T05:09:15;99517.19;;;21.01;100.00
30714;BME280;17465;47.934;33.430;2022-08-03T05:11:47;99517.19;;;21.01;100.00
30714;BME280;17465;47.934;33.430;2022-08-03T05:14:17;99524.62;;;21.10;100.00
30714;BME280;17465;47.934;33.430;2022-08-03T05:16:49;99524.62;;;21.10;100.00
30714;BME280;17465;47.934;33.430;2022-08-03T05:19:20;99527.47;;;21.03;100.00
30714;BME280;17465;47.934;33.430;2022-08-03T05:21:51;99524.02;;;20.97;100.00
30714;BME280;17465;47.934;33.430;2022-08-03T05:24:21;99528.66;;;21.13;100.00
30714;BME280;17465;47.934;33.430;2022-08-03T05:26:52;99531.28;;;21.05;100.00
30714;BME280;17465;47.934;33.430;2022-08-03T05:29:22;99537.09;;;21.20;100.00
30714;BME280;17465;47.934;33.430;2022-08-03T05:31:53;99542.52;;;21.36;100.00
30714;BME280;17465;47.934;33.430;2022-08-03T05:34:23;99543.89;;;21.53;100.00
30714;BME280;17465;47.934;33.430;2022-08-03T05:36:54;99541.16;;;21.12;100.00
30714;BME280;17465;47.934;33.430;2022-08-03T05:39:24;99544.19;;;21.13;100.00
30714;BME280;17465;47.934;33.430;2022-08-03T05:41:54;99547.58;;;21.23;100.00
30714;BME280;17465;47.934;33.430;2022-08-03T05:44:25;99555.44;;;21.20;100.00
30714;BME280;17465;47.934;33.430;2022-08-03T05:46:56;99549.41;;;21.21;100.00
30714;BME280;17465;47.934;33.430;2022-08-03T05:49:26;99549.41;;;21.21;100.00
30714;BME280;17465;47.934;33.430;2022-08-03T05:51:57;99547.12;;;21.41;100.00
30714;BME280;17465;47.934;33.430;2022-08-03T05:54:29;99552.73;;;21.69;100.00
30714;BME280;17465;47.934;33.430;2022-08-03T05:57:01;99545.89;;;21.63;100.00
30714;BME280;17465;47.934;33.430;2022-08-03T05:59:31;99545.89;;;21.63;100.00
30714;BME280;17465;47.934;33.430;2022-08-03T06:02:03;99554.13;;;21.73;100.00
30714;BME280;17465;47.934;33.430;2022-08-03T06:04:34;99559.56;;;21.82;100.00
30714;BME280;17465;47.934;33.430;2022-08-03T06:07:04;99560.09;;;21.99;100.00
30714;BME280;17465;47.934;33.430;2022-08-03T06:09:34;99562.12;;;21.95;100.00
30714;BME280;17465;47.934;33.430;2022-08-03T06:12:07;99557.90;;;21.88;100.00
30714;BME280;17465;47.934;33.430;2022-08-03T06:14:39;99557.90;;;21.88;100.00
30714;BME280;17465;47.934;33.430;2022-08-03T06:17:09;99559.06;;;22.44;100.00
30714;BME280;17465;47.934;33.430;2022-08-03T06:19:41;99559.06;;;22.44;100.00
30714;BME280;17465;47.934;33.430;2022-08-03T06:22:12;99560.48;;;22.44;100.00
30714;BME280;17465;47.934;33.430;2022-08-03T06:24:43;99560.48;;;22.44;100.00
30714;BME280;17465;47.934;33.430;2022-08-03T06:27:15;99559.48;;;22.39;100.00
30714;BME280;17465;47.934;33.430;2022-08-03T06:29:45;99559.48;;;22.39;100.00
30714;BME280;17465;47.934;33.430;2022-08-03T06:32:15;99560.37;;;22.58;100.00
30714;BME280;17465;47.934;33.430;2022-08-03T06:34:46;99553.41;;;22.69;100.00
30714;BME280;17465;47.934;33.430;2022-08-03T06:37:24;99553.41;;;22.69;100.00
30714;BME280;17465;47.934;33.430;2022-08-03T06:39:55;99557.77;;;22.81;100.00
30714;BME280;17465;47.934;33.430;2022-08-03T06:42:25;99564.27;;;23.03;100.00
30714;BME280;17465;47.934;33.430;2022-08-03T06:44:56;99559.24;;;22.99;100.00
30714;BME280;17465;47.934;33.430;2022-08-03T06:47:26;99557.84;;;22.96;100.00
30714;BME280;17465;47.934;33.430;2022-08-03T06:49:57;99557.84;;;22.96;100.00
30714;BME280;17465;47.934;33.430;2022-08-03T06:52:29;99558.87;;;22.68;100.00
30714;BME280;17465;47.934;33.430;2022-08-03T06:55:04;99558.87;;;22.68;100.00
30714;BME280;17465;47.934;33.430;2022-08-03T06:57:36;99554.52;;;22.57;100.00
30714;BME280;17465;47.934;33.430;2022-08-03T07:02:59;99561.63;;;22.50;100.00
30714;BME280;17465;47.934;33.430;2022-08-03T07:05:30;99564.91;;;22.42;100.00
30714;BME280;17465;47.934;33.430;2022-08-03T07:08:01;99564.91;;;22.42;100.00
30714;BME280;17465;47.934;33.430;2022-08-03T07:10:32;99560.88;;;22.43;100.00
30714;BME280;17465;47.934;33.430;2022-08-03T07:13:05;99558.08;;;22.32;100.00
30714;BME280;17465;47.934;33.430;2022-08-03T07:15:36;99562.31;;;22.32;100.00
30714;BME280;17465;47.934;33.430;2022-08-03T07:18:08;99562.94;;;22.35;100.00
30714;BME280;17465;47.934;33.430;2022-08-03T07:20:41;99562.94;;;22.35;100.00
30714;BME280;17465;47.934;33.430;2022-08-03T07:23:12;99571.20;;;22.41;100.00
30714;BME280;17465;47.934;33.430;2022-08-03T07:25:44;99572.58;;;22.48;100.00
30714;BME280;17465;47.934;33.430;2022-08-03T07:28:14;99573.53;;;22.53;100.00
30714;BME280;17465;47.934;33.430;2022-08-03T07:30:45;99573.53;;;22.53;100.00
30714;BME280;17465;47.934;33.430;2022-08-03T07:33:15;99583.63;;;22.57;100.00
30714;BME280;17465;47.934;33.430;2022-08-03T07:35:46;99577.64;;;22.45;100.00
30714;BME280;17465;47.934;33.430;2022-08-03T07:38:16;99578.05;;;22.72;100.00
30714;BME280;17465;47.934;33.430;2022-08-03T07:40:48;99577.23;;;22.72;100.00
30714;BME280;17465;47.934;33.430;2022-08-03T07:43:18;99581.66;;;22.76;100.00
30714;BME280;17465;47.934;33.430;2022-08-03T07:45:49;99588.66;;;22.58;100.00
30714;BME280;17465;47.934;33.430;2022-08-03T07:48:21;99588.66;;;22.58;100.00
30714;BME280;17465;47.934;33.430;2022-08-03T07:50:51;99590.03;;;22.90;100.00
30714;BME280;17465;47.934;33.430;2022-08-03T07:53:21;99586.50;;;22.76;100.00
30714;BME280;17465;47.934;33.430;2022-08-03T07:55:52;99586.50;;;22.76;100.00
30714;BME280;17465;47.934;33.430;2022-08-03T07:58:22;99597.66;;;23.00;100.00
30714;BME280;17465;47.934;33.430;2022-08-03T08:00:53;99597.66;;;23.00;100.00
30714;BME280;17465;47.934;33.430;2022-08-03T08:03:23;99594.59;;;23.03;100.00
30714;BME280;17465;47.934;33.430;2022-08-03T08:05:54;99599.31;;;22.94;100.00
30714;BME280;17465;47.934;33.430;2022-08-03T08:08:24;99610.34;;;23.11;100.00
30714;BME280;17465;47.934;33.430;2022-08-03T08:10:54;99609.52;;;23.10;100.00
30714;BME280;17465;47.934;33.430;2022-08-03T08:13:27;99609.52;;;23.10;100.00
30714;BME280;17465;47.934;33.430;2022-08-03T08:15:57;99605.02;;;23.16;100.00
30714;BME280;17465;47.934;33.430;2022-08-03T08:18:27;99614.39;;;23.10;100.00
30714;BME280;17465;47.934;33.430;2022-08-03T08:20:58;99608.09;;;23.36;100.00
30714;BME280;17465;47.934;33.430;2022-08-03T08:23:29;99618.46;;;23.27;100.00
30714;BME280;17465;47.934;33.430;2022-08-03T08:26:11;99615.19;;;23.32;100.00
30714;BME280;17465;47.934;33.430;2022-08-03T08:28:41;99615.19;;;23.32;100.00
30714;BME280;17465;47.934;33.430;2022-08-03T08:31:12;99610.44;;;23.44;100.00
30714;BME280;17465;47.934;33.430;2022-08-03T08:33:44;99606.56;;;23.64;100.00
30714;BME280;17465;47.934;33.430;2022-08-03T08:36:20;99620.65;;;24.12;100.00
30714;BME280;17465;47.934;33.430;2022-08-03T08:41:35;99618.80;;;23.76;100.00
30714;BME280;17465;47.934;33.430;2022-08-03T08:44:08;99618.80;;;23.76;100.00
30714;BME280;17465;47.934;33.430;2022-08-03T08:46:39;99616.80;;;24.10;100.00
30714;BME280;17465;47.934;33.430;2022-08-03T08:49:10;99616.80;;;24.10;100.00
30714;BME280;17465;47.934;33.430;2022-08-03T08:54:40;99626.81;;;24.93;100.00
30714;BME280;17465;47.934;33.430;2022-08-03T08:57:11;99626.81;;;24.93;100.00
30714;BME280;17465;47.934;33.430;2022-08-03T08:59:51;99625.55;;;24.82;100.00
30714;BME280;17465;47.934;33.430;2022-08-03T09:02:20;99626.09;;;24.89;100.00
30714;BME280;17465;47.934;33.430;2022-08-03T09:04:51;99628.17;;;24.85;100.00
30714;BME280;17465;47.934;33.430;2022-08-03T09:07:23;99627.87;;;24.50;100.00
30714;BME280;17465;47.934;33.430;2022-08-03T09:09:53;99635.45;;;24.86;100.00
30714;BME280;17465;47.934;33.430;2022-08-03T09:12:25;99635.73;;;24.80;100.00
30714;BME280;17465;47.934;33.430;2022-08-03T09:14:57;99631.86;;;24.37;100.00
30714;BME280;17465;47.934;33.430;2022-08-03T09:17:40;99631.86;;;24.37;100.00
30714;BME280;17465;47.934;33.430;2022-08-03T09:20:11;99635.04;;;24.99;100.00
30714;BME280;17465;47.934;33.430;2022-08-03T09:25:38;99634.69;;;25.08;100.00
30714;BME280;17465;47.934;33.430;2022-08-03T09:28:11;99634.25;;;25.48;98.87
30714;BME280;17465;47.934;33.430;2022-08-03T09:30:45;99641.80;;;25.58;98.23
30714;BME280;17465;47.934;33.430;2022-08-03T09:33:16;99645.14;;;25.41;98.90
30714;BME280;17465;47.934;33.430;2022-08-03T09:35:47;99645.14;;;25.41;98.90
30714;BME280;17465;47.934;33.430;2022-08-03T09:38:23;99646.08;;;25.80;99.15
30714;BME280;17465;47.934;33.430;2022-08-03T09:40:55;99644.84;;;26.32;93.07
30714;BME280;17465;47.934;33.430;2022-08-03T09:43:28;99644.84;;;26.32;93.07
30714;BME280;17465;47.934;33.430;2022-08-03T09:46:06;99644.48;;;25.79;95.24
30714;BME280;17465;47.934;33.430;2022-08-03T09:48:36;99645.52;;;26.59;92.79
30714;BME280;17465;47.934;33.430;2022-08-03T09:51:07;99642.73;;;27.26;88.58
30714;BME280;17465;47.934;33.430;2022-08-03T09:56:39;99648.87;;;27.32;89.00
30714;BME280;17465;47.934;33.430;2022-08-03T09:59:23;99650.69;;;27.66;83.56
30714;BME280;17465;47.934;33.430;2022-08-03T10:01:46;99650.69;;;27.66;83.56
30714;BME280;17465;47.934;33.430;2022-08-03T10:04:16;99650.16;;;27.04;88.43
30714;BME280;17465;47.934;33.430;2022-08-03T10:07:04;99646.82;;;27.25;86.14
30714;BME280;17465;47.934;33.430;2022-08-03T10:09:36;99653.47;;;26.75;89.25
30714;BME280;17465;47.934;33.430;2022-08-03T10:12:10;99653.47;;;26.75;89.25
30714;BME280;17465;47.934;33.430;2022-08-03T10:14:42;99659.89;;;26.79;88.66
30714;BME280;17465;47.934;33.430;2022-08-03T10:17:15;99661.28;;;26.71;92.93
30714;BME280;17465;47.934;33.430;2022-08-03T10:19:47;99656.44;;;26.87;89.51
30714;BME280;17465;47.934;33.430;2022-08-03T10:22:33;99653.29;;;26.47;90.27
30714;BME280;17465;47.934;33.430;2022-08-03T10:25:08;99651.95;;;26.71;88.98
30714;BME280;17465;47.934;33.430;2022-08-03T10:27:40;99655.77;;;26.72;85.77
30714;BME280;17465;47.934;33.430;2022-08-03T10:30:11;99653.77;;;27.48;82.37
30714;BME280;17465;47.934;33.430;2022-08-03T10:32:58;99657.15;;;27.43;83.50
30714;BME280;17465;47.934;33.430;2022-08-03T10:35:29;99660.36;;;27.45;81.59
30714;BME280;17465;47.934;33.430;2022-08-03T10:38:02;99660.36;;;27.45;81.59
30714;BME280;17465;47.934;33.430;2022-08-03T10:40:37;99664.47;;;28.36;77.27
30714;BME280;17465;47.934;33.430;2022-08-03T10:43:17;99651.27;;;27.82;82.17
30714;BME280;17465;47.934;33.430;2022-08-03T10:45:45;99654.39;;;27.55;84.80
30714;BME280;17465;47.934;33.430;2022-08-03T10:48:19;99651.72;;;27.72;83.50
30714;BME280;17465;47.934;33.430;2022-08-03T10:50:52;99651.72;;;27.72;83.50
30714;BME280;17465;47.934;33.430;2022-08-03T10:53:40;99646.91;;;27.37;82.89
30714;BME280;17465;47.934;33.430;2022-08-03T10:59:05;99646.20;;;27.73;83.86
30714;BME280;17465;47.934;33.430;2022-08-03T11:04:28;99641.21;;;28.13;78.88
30714;BME280;17465;47.934;33.430;2022-08-03T11:09:49;99638.48;;;28.38;75.37
30714;BME280;17465;47.934;33.430;2022-08-03T11:12:31;99642.73;;;28.79;74.66
30714;BME280;17465;47.934;33.430;2022-08-03T11:15:08;99635.66;;;28.51;75.69
30714;BME280;17465;47.934;33.430;2022-08-03T11:17:41;99638.08;;;28.65;74.67
30714;BME280;17465;47.934;33.430;2022-08-03T11:20:33;99638.08;;;28.65;74.67
30714;BME280;17465;47.934;33.430;2022-08-03T11:22:52;99627.53;;;28.00;78.32
30714;BME280;17465;47.934;33.430;2022-08-03T11:25:22;99625.50;;;28.21;76.97
30714;BME280;17465;47.934;33.430;2022-08-03T11:28:26;99622.31;;;27.75;81.50
30714;BME280;17465;47.934;33.430;2022-08-03T11:31:36;99622.31;;;27.75;81.50
30714;BME280;17465;47.934;33.430;2022-08-03T11:33:35;99621.18;;;27.33;84.76
30714;BME280;17465;47.934;33.430;2022-08-03T11:36:07;99621.18;;;27.33;84.76
30714;BME280;17465;47.934;33.430;2022-08-03T11:39:12;99622.25;;;27.31;80.37
30714;BME280;17465;47.934;33.430;2022-08-03T11:41:44;99622.25;;;27.31;80.37
30714;BME280;17465;47.934;33.430;2022-08-03T11:44:39;99622.27;;;26.80;91.38
30714;BME280;17465;47.934;33.430;2022-08-03T11:47:14;99622.27;;;26.80;91.38
30714;BME280;17465;47.934;33.430;2022-08-03T11:50:07;99617.72;;;26.82;85.93
30714;BME280;17465;47.934;33.430;2022-08-03T11:52:41;99616.20;;;26.85;84.00
30714;BME280;17465;47.934;33.430;2022-08-03T11:55:13;99605.39;;;26.61;85.17
30714;BME280;17465;47.934;33.430;2022-08-03T11:57:44;99608.59;;;26.71;82.97
30714;BME280;17465;47.934;33.430;2022-08-03T12:00:21;99613.08;;;26.80;83.93
30714;BME280;17465;47.934;33.430;2022-08-03T12:03:06;99610.93;;;26.76;89.28
30714;BME280;17465;47.934;33.430;2022-08-03T12:05:53;99613.23;;;26.65;90.61
30714;BME280;17465;47.934;33.430;2022-08-03T12:08:31;99613.23;;;26.65;90.61
30714;BME280;17465;47.934;33.430;2022-08-03T12:11:03;99608.02;;;26.44;90.06
30714;BME280;17465;47.934;33.430;2022-08-03T12:13:42;99608.02;;;26.44;90.06
30714;BME280;17465;47.934;33.430;2022-08-03T12:16:34;99609.45;;;26.13;92.24
30714;BME280;17465;47.934;33.430;2022-08-03T12:19:06;99603.45;;;25.35;96.11
30714;BME280;17465;47.934;33.430;2022-08-03T12:21:50;99603.45;;;25.35;96.11
30714;BME280;17465;47.934;33.430;2022-08-03T12:24:24;99613.81;;;24.95;98.93
30714;BME280;17465;47.934;33.430;2022-08-03T12:26:56;99602.01;;;24.97;100.00
30714;BME280;17465;47.934;33.430;2022-08-03T12:29:28;99602.01;;;24.97;100.00
30714;BME280;17465;47.934;33.430;2022-08-03T12:32:00;99612.22;;;25.06;100.00
30714;BME280;17465;47.934;33.430;2022-08-03T12:34:47;99607.00;;;25.16;100.00
30714;BME280;17465;47.934;33.430;2022-08-03T12:37:19;99607.00;;;25.16;100.00
30714;BME280;17465;47.934;33.430;2022-08-03T12:39:52;99613.94;;;25.15;100.00
30714;BME280;17465;47.934;33.430;2022-08-03T12:42:37;99619.71;;;24.93;100.00
30714;BME280;17465;47.934;33.430;2022-08-03T12:45:25;99619.71;;;24.93;100.00
30714;BME280;17465;47.934;33.430;2022-08-03T12:47:58;99626.13;;;24.85;100.00
30714;BME280;17465;47.934;33.430;2022-08-03T12:50:32;99626.13;;;24.85;100.00
30714;BME280;17465;47.934;33.430;2022-08-03T12:53:05;99633.75;;;24.77;100.00
30714;BME280;17465;47.934;33.430;2022-08-03T12:55:38;99633.75;;;24.77;100.00
30714;BME280;17465;47.934;33.430;2022-08-03T12:58:27;99627.33;;;24.43;100.00
30714;BME280;17465;47.934;33.430;2022-08-03T13:00:57;99623.62;;;24.50;100.00
30714;BME280;17465;47.934;33.430;2022-08-03T13:03:27;99623.62;;;24.50;100.00
30714;BME280;17465;47.934;33.430;2022-08-03T13:05:59;99626.84;;;24.78;100.00
30714;BME280;17465;47.934;33.430;2022-08-03T13:08:30;99626.84;;;24.78;100.00
30714;BME280;17465;47.934;33.430;2022-08-03T13:11:24;99629.65;;;24.93;100.00
30714;BME280;17465;47.934;33.430;2022-08-03T13:13:57;99625.90;;;24.73;100.00
30714;BME280;17465;47.934;33.430;2022-08-03T13:16:28;99637.41;;;24.77;100.00
30714;BME280;17465;47.934;33.430;2022-08-03T13:18:58;99640.28;;;24.74;100.00
30714;BME280;17465;47.934;33.430;2022-08-03T13:21:29;99640.88;;;24.88;100.00
30714;BME280;17465;47.934;33.430;2022-08-03T13:23:59;99639.30;;;24.99;100.00
30714;BME280;17465;47.934;33.430;2022-08-03T13:26:30;99652.28;;;25.15;100.00
30714;BME280;17465;47.934;33.430;2022-08-03T13:29:00;99652.28;;;25.15;100.00
30714;BME280;17465;47.934;33.430;2022-08-03T13:31:31;99657.27;;;25.19;100.00
30714;BME280;17465;47.934;33.430;2022-08-03T13:34:01;99655.11;;;25.00;100.00
30714;BME280;17465;47.934;33.430;2022-08-03T13:36:32;99649.48;;;24.96;100.00
30714;BME280;17465;47.934;33.430;2022-08-03T13:39:07;99649.48;;;24.96;100.00
30714;BME280;17465;47.934;33.430;2022-08-03T13:41:40;99653.59;;;25.07;100.00
30714;BME280;17465;47.934;33.430;2022-08-03T13:44:14;99657.37;;;24.97;100.00
30714;BME280;17465;47.934;33.430;2022-08-03T13:46:47;99657.37;;;24.97;100.00
30714;BME280;17465;47.934;33.430;2022-08-03T13:49:18;99657.56;;;25.13;100.00
30714;BME280;17465;47.934;33.430;2022-08-03T13:51:50;99658.20;;;25.24;100.00
30714;BME280;17465;47.934;33.430;2022-08-03T13:54:21;99662.04;;;25.71;100.00